Time;durP1;ratioP1;P1;durP2;ratioP2;P2;SDS_P1;SDS_P2;PMS_P1;PMS_P2;Temp;Humidity;BMP_temperature;BMP_pressure;BME280_temperature;BME280_humidity;BME280_pressure;Samples;Min_cycle;Max_cycle;Signal;HPM_P1;HPM_P2
2023/08/27 00:00:28;;;;;;;17.88;16.50;;;15.40;88.00;;;;;;5094455;28;20175;-90
2023/08/27 00:02:54;;;;;;;19.02;17.15;;;15.40;88.00;;;;;;5094132;28;20312;-90
2023/08/27 00:05:20;;;;;;;18.23;16.55;;;15.40;88.10;;;;;;5094108;28;20209;-90
2023/08/27 00:07:45;;;;;;;17.30;15.70;;;15.40;88.30;;;;;;5094231;28;20171;-90
2023/08/27 00:10:11;;;;;;;17.35;15.82;;;15.40;88.50;;;;;;5094009;28;20174;-90
2023/08/27 00:12:37;;;;;;;15.52;14.20;;;15.40;88.70;;;;;;5093807;28;20258;-90
2023/08/27 00:15:03;;;;;;;15.40;14.15;;;15.30;88.80;;;;;;5093813;28;20630;-90
2023/08/27 00:17:29;;;;;;;16.38;14.90;;;15.40;88.90;;;;;;5093881;28;20602;-90
2023/08/27 00:19:55;;;;;;;15.68;14.48;;;15.30;89.00;;;;;;5093880;28;20183;-90
2023/08/27 00:22:21;;;;;;;15.73;14.32;;;15.30;89.10;;;;;;5093951;28;20179;-90
2023/08/27 00:24:47;;;;;;;15.88;14.60;;;15.40;89.20;;;;;;5093568;28;20198;-90
2023/08/27 00:27:12;;;;;;;15.65;14.23;;;15.40;89.20;;;;;;5094178;28;20174;-90
2023/08/27 00:29:38;;;;;;;16.20;14.52;;;15.50;89.20;;;;;;5093749;28;20547;-90
2023/08/27 00:32:04;;;;;;;16.13;14.70;;;15.50;89.30;;;;;;5093617;28;20663;-90
2023/08/27 00:34:35;;;;;;;16.80;15.52;;;15.50;89.30;;;;;;5094217;28;20171;-90
2023/08/27 00:37:02;;;;;;;19.02;17.10;;;15.50;89.30;;;;;;5093579;28;20231;-90
2023/08/27 00:39:29;;;;;;;24.02;17.00;;;15.60;89.20;;;;;;5093504;28;20171;-90
2023/08/27 00:41:55;;;;;;;17.50;16.10;;;15.50;89.20;;;;;;5093513;28;20665;-90
2023/08/27 00:44:20;;;;;;;15.85;14.65;;;15.50;89.20;;;;;;5093313;28;20175;-90
2023/08/27 00:46:50;;;;;;;16.23;14.48;;;15.50;89.20;;;;;;5093313;28;20206;-90
2023/08/27 00:49:16;;;;;;;15.55;14.48;;;15.50;89.10;;;;;;5093156;28;20650;-90
2023/08/27 00:51:43;;;;;;;15.25;14.05;;;15.40;89.20;;;;;;5093298;28;20177;-90
2023/08/27 00:54:10;;;;;;;16.13;14.55;;;15.50;89.20;;;;;;5093525;28;20262;-90
2023/08/27 00:56:35;;;;;;;15.52;14.43;;;15.50;89.20;;;;;;5093140;28;20213;-90
2023/08/27 00:59:02;;;;;;;15.75;14.10;;;15.50;89.10;;;;;;5093016;28;20527;-90
2023/08/27 01:01:29;;;;;;;15.25;13.85;;;15.40;89.10;;;;;;5093094;28;20202;-91
2023/08/27 01:03:54;;;;;;;18.67;13.35;;;15.40;89.00;;;;;;5092999;28;20182;-90
2023/08/27 01:06:20;;;;;;;14.98;13.68;;;15.40;88.90;;;;;;5092839;28;20207;-90
2023/08/27 01:09:20;;;;;;;15.90;14.50;;;15.30;88.80;;;;;;5093449;28;20181;-90
2023/08/27 01:12:09;;;;;;;14.98;14.02;;;15.30;88.60;;;;;;5093816;28;20181;-90
2023/08/27 01:14:36;;;;;;;15.60;14.50;;;15.20;88.40;;;;;;5092879;28;20175;-90
2023/08/27 01:17:03;;;;;;;15.45;14.23;;;15.10;88.40;;;;;;5093057;28;20174;-90
2023/08/27 01:19:29;;;;;;;17.02;15.30;;;15.00;88.30;;;;;;5092653;28;20201;-90
2023/08/27 01:21:55;;;;;;;16.83;15.38;;;15.00;88.30;;;;;;5092689;28;20178;-90
2023/08/27 01:24:21;;;;;;;15.25;14.00;;;15.00;88.30;;;;;;5092357;28;20171;-90
2023/08/27 01:26:54;;;;;;;16.83;15.52;;;15.00;88.30;;;;;;5092602;28;20202;-90
2023/08/27 01:29:45;;;;;;;17.25;15.60;;;14.90;88.30;;;;;;5092946;28;20190;-90
2023/08/27 01:32:31;;;;;;;16.88;15.68;;;14.90;88.30;;;;;;5092549;28;20170;-90
2023/08/27 01:34:58;;;;;;;17.13;15.02;;;14.90;88.50;;;;;;5093084;28;20194;-90
2023/08/27 01:37:24;;;;;;;16.52;15.15;;;14.90;88.70;;;;;;5093352;28;20178;-90
2023/08/27 01:40:01;;;;;;;15.40;14.00;;;15.00;89.00;;;;;;5092424;28;20182;-90
2023/08/27 01:42:27;;;;;;;25.55;23.35;;;14.90;89.20;;;;;;5092462;28;20178;-90
2023/08/27 01:44:55;;;;;;;27.33;25.20;;;14.90;89.40;;;;;;5092299;28;20190;-90
2023/08/27 01:47:21;;;;;;;16.25;14.57;;;14.90;89.40;;;;;;5092912;28;20175;-90
2023/08/27 01:49:48;;;;;;;15.45;14.02;;;15.00;89.50;;;;;;5092304;28;20232;-90
2023/08/27 01:52:14;;;;;;;25.42;23.05;;;15.00;89.50;;;;;;5092278;28;20315;-90
2023/08/27 01:54:39;;;;;;;24.90;22.90;;;15.10;89.40;;;;;;5092406;28;20225;-90
2023/08/27 01:57:05;;;;;;;26.38;23.95;;;15.00;89.30;;;;;;5092245;28;20275;-90
2023/08/27 01:59:31;;;;;;;16.10;14.70;;;15.00;89.40;;;;;;5093002;28;20178;-90
2023/08/27 02:01:56;;;;;;;15.52;14.32;;;15.10;89.50;;;;;;5092238;28;20167;-90
2023/08/27 02:04:22;;;;;;;16.08;14.75;;;15.10;89.40;;;;;;5092246;28;20185;-90
2023/08/27 02:06:47;;;;;;;16.92;15.40;;;15.10;89.40;;;;;;5092150;28;20201;-90
2023/08/27 02:09:13;;;;;;;16.42;15.13;;;15.10;89.40;;;;;;5092065;28;20167;-90
2023/08/27 02:11:39;;;;;;;16.08;14.70;;;15.10;89.40;;;;;;5092038;28;20265;-90
2023/08/27 02:14:04;;;;;;;15.32;13.98;;;15.10;89.30;;;;;;5092389;28;20171;-90
2023/08/27 02:16:30;;;;;;;15.32;14.02;;;15.10;89.20;;;;;;5092122;28;20194;-90
2023/08/27 02:18:55;;;;;;;17.10;15.40;;;15.10;89.20;;;;;;5092090;28;20178;-90
2023/08/27 02:21:21;;;;;;;17.77;16.33;;;15.00;89.10;;;;;;5093397;28;20224;-90
2023/08/27 02:23:47;;;;;;;19.67;16.65;;;15.00;89.00;;;;;;5091873;28;20178;-90
2023/08/27 02:26:12;;;;;;;17.88;16.17;;;14.80;88.90;;;;;;5091949;28;20776;-90
2023/08/27 02:28:38;;;;;;;17.15;15.95;;;14.70;89.10;;;;;;5091857;28;20167;-90
2023/08/27 02:31:03;;;;;;;15.98;14.77;;;14.70;89.10;;;;;;5091990;28;20170;-90
2023/08/27 02:33:29;;;;;;;15.75;14.60;;;14.70;89.20;;;;;;5091962;28;20166;-90
2023/08/27 02:35:54;;;;;;;15.90;14.70;;;14.60;89.20;;;;;;5094001;28;20225;-90
2023/08/27 02:38:20;;;;;;;15.43;14.07;;;14.70;89.20;;;;;;5095748;28;20182;-90
2023/08/27 02:40:46;;;;;;;17.15;13.85;;;14.70;89.10;;;;;;5096299;28;20174;-90
2023/08/27 02:43:12;;;;;;;15.40;14.10;;;14.60;89.10;;;;;;5095791;28;20182;-90
2023/08/27 02:45:37;;;;;;;15.95;14.73;;;14.60;89.00;;;;;;5095368;28;20198;-91
2023/08/27 02:48:03;;;;;;;15.73;14.52;;;14.60;88.80;;;;;;5095612;28;20652;-90
2023/08/27 02:50:29;;;;;;;16.35;15.15;;;14.40;88.60;;;;;;5095679;28;20178;-90
2023/08/27 02:52:54;;;;;;;19.13;15.10;;;14.40;88.90;;;;;;5095803;28;20557;-90
2023/08/27 02:55:20;;;;;;;15.75;14.52;;;14.40;88.80;;;;;;5095411;28;20262;-90
2023/08/27 02:57:45;;;;;;;16.77;15.18;;;14.40;88.80;;;;;;5095434;28;20186;-90
2023/08/27 03:00:12;;;;;;;16.02;14.70;;;14.40;88.70;;;;;;5095504;28;20179;-90
2023/08/27 03:02:38;;;;;;;15.98;14.32;;;14.30;88.90;;;;;;5095258;28;20185;-90
2023/08/27 03:05:04;;;;;;;15.48;14.25;;;14.30;88.90;;;;;;5095296;28;20199;-90
2023/08/27 03:07:30;;;;;;;15.95;14.65;;;14.30;89.00;;;;;;5095169;28;20170;-90
2023/08/27 03:09:56;;;;;;;15.82;14.32;;;14.30;89.10;;;;;;5095304;28;20225;-90
2023/08/27 03:12:21;;;;;;;15.50;14.20;;;14.30;89.10;;;;;;5095200;28;20711;-90
2023/08/27 03:14:47;;;;;;;16.52;14.65;;;14.30;89.10;;;;;;5095078;28;20193;-90
2023/08/27 03:17:13;;;;;;;16.20;14.70;;;14.30;89.10;;;;;;5095534;28;20185;-90
2023/08/27 03:19:38;;;;;;;15.15;14.18;;;14.30;89.00;;;;;;5095173;28;20723;-90
2023/08/27 03:22:04;;;;;;;15.85;14.40;;;14.30;89.00;;;;;;5094965;28;20239;-90
2023/08/27 03:24:30;;;;;;;15.80;14.48;;;14.30;88.90;;;;;;5095242;28;20179;-90
2023/08/27 03:26:55;;;;;;;15.80;14.27;;;14.20;88.80;;;;;;5094986;28;20905;-90
2023/08/27 03:29:21;;;;;;;15.35;14.02;;;14.20;88.90;;;;;;5095266;28;20592;-90
2023/08/27 03:31:47;;;;;;;15.57;14.07;;;14.20;89.10;;;;;;5094806;28;20182;-90
2023/08/27 03:34:13;;;;;;;15.13;13.93;;;14.20;89.00;;;;;;5094810;28;20216;-90
2023/08/27 03:36:38;;;;;;;14.90;13.80;;;14.20;88.90;;;;;;5094661;28;20600;-90
2023/08/27 03:39:05;;;;;;;15.05;13.95;;;14.10;88.90;;;;;;5094810;28;20209;-90
2023/08/27 03:41:31;;;;;;;16.33;14.80;;;14.20;88.90;;;;;;5095268;28;20196;-90
2023/08/27 03:43:57;;;;;;;15.07;14.07;;;14.10;88.80;;;;;;5094584;28;20170;-90
2023/08/27 03:46:22;;;;;;;16.13;14.93;;;14.10;88.80;;;;;;5094609;28;20198;-90
2023/08/27 03:48:48;;;;;;;15.93;14.40;;;14.10;88.70;;;;;;5094216;28;20638;-90
2023/08/27 03:51:14;;;;;;;16.88;15.02;;;14.00;88.60;;;;;;5094398;28;20178;-90
2023/08/27 03:53:40;;;;;;;15.70;14.55;;;14.00;88.60;;;;;;5094343;28;20171;-90
2023/08/27 03:56:05;;;;;;;16.35;13.88;;;13.90;88.60;;;;;;5094216;28;20742;-90
2023/08/27 03:58:31;;;;;;;14.90;13.77;;;13.80;88.60;;;;;;5094476;28;20171;-90
2023/08/27 04:00:57;;;;;;;15.05;14.05;;;13.80;88.70;;;;;;5094375;28;20182;-89
2023/08/27 04:03:23;;;;;;;15.13;13.93;;;13.80;88.60;;;;;;5094254;28;20265;-89
2023/08/27 04:05:49;;;;;;;16.63;15.18;;;13.80;88.60;;;;;;5094115;28;20198;-90
2023/08/27 04:08:15;;;;;;;15.63;14.63;;;13.80;88.60;;;;;;5095348;28;20183;-90
2023/08/27 04:10:51;;;;;;;15.93;14.73;;;13.80;88.60;;;;;;5094143;28;20167;-90
2023/08/27 04:13:20;;;;;;;15.52;14.38;;;13.80;88.60;;;;;;5094851;28;20159;-90
2023/08/27 04:15:47;;;;;;;14.52;13.13;;;13.70;88.70;;;;;;5093933;28;20200;-90
2023/08/27 04:18:13;;;;;;;14.10;13.10;;;13.70;88.70;;;;;;5094093;28;20178;-90
2023/08/27 04:20:38;;;;;;;14.50;13.40;;;13.70;88.60;;;;;;5094201;28;20648;-90
2023/08/27 04:23:04;;;;;;;14.32;13.27;;;13.70;88.60;;;;;;5093962;28;20564;-90
2023/08/27 04:25:29;;;;;;;14.90;13.63;;;13.70;88.60;;;;;;5093681;28;20206;-90
2023/08/27 04:27:56;;;;;;;14.60;13.43;;;13.60;88.50;;;;;;5093820;28;20182;-90
2023/08/27 04:30:22;;;;;;;14.60;13.35;;;13.60;88.50;;;;;;5093710;28;20174;-90
2023/08/27 04:32:47;;;;;;;14.65;13.50;;;13.50;88.50;;;;;;5093703;28;20183;-90
2023/08/27 04:35:14;;;;;;;14.82;13.55;;;13.60;88.50;;;;;;5093562;28;20206;-90
2023/08/27 04:37:39;;;;;;;14.80;13.65;;;13.50;88.40;;;;;;5093472;28;20201;-90
2023/08/27 04:40:06;;;;;;;15.85;14.52;;;13.50;88.30;;;;;;5093497;28;20205;-90
2023/08/27 04:42:31;;;;;;;18.90;17.30;;;13.50;88.30;;;;;;5093939;28;20185;-89
2023/08/27 04:44:57;;;;;;;17.42;16.05;;;13.50;88.20;;;;;;5093213;28;20638;-90
2023/08/27 04:47:22;;;;;;;17.42;16.13;;;13.30;88.50;;;;;;5093627;28;20171;-89
2023/08/27 04:49:48;;;;;;;17.57;16.10;;;13.30;88.90;;;;;;5093294;28;20254;-89
2023/08/27 04:52:14;;;;;;;17.17;15.60;;;13.20;89.10;;;;;;5094176;28;20501;-89
2023/08/27 04:54:40;;;;;;;16.53;15.27;;;13.20;89.30;;;;;;5093291;28;20320;-89
2023/08/27 04:57:06;;;;;;;16.20;15.00;;;13.20;89.40;;;;;;5093196;28;20259;-89
2023/08/27 04:59:31;;;;;;;16.77;15.13;;;13.20;89.50;;;;;;5092223;28;20670;-90
2023/08/27 05:01:59;;;;;;;16.37;15.17;;;13.10;89.60;;;;;;5093052;28;20646;-89
2023/08/27 05:04:28;;;;;;;16.07;14.87;;;13.10;89.70;;;;;;5093014;28;20174;-90
2023/08/27 05:06:53;;;;;;;17.53;15.53;;;13.10;89.80;;;;;;5092949;28;20194;-90
2023/08/27 05:09:19;;;;;;;16.00;14.90;;;13.10;89.90;;;;;;5093006;28;20177;-90
2023/08/27 05:11:44;;;;;;;16.47;15.13;;;13.20;90.00;;;;;;5092981;28;20177;-89
2023/08/27 05:14:10;;;;;;;16.70;15.50;;;13.20;90.10;;;;;;5092929;28;20181;-89
2023/08/27 05:16:36;;;;;;;15.90;14.70;;;13.30;90.10;;;;;;5093081;28;20716;-89
2023/08/27 05:19:01;;;;;;;16.30;15.13;;;13.30;90.30;;;;;;5092795;28;20648;-90
2023/08/27 05:21:27;;;;;;;17.37;15.63;;;13.30;90.40;;;;;;5092908;28;20175;-90
2023/08/27 05:23:52;;;;;;;16.37;15.10;;;13.30;90.50;;;;;;5092737;28;20182;-90
2023/08/27 05:26:18;;;;;;;14.67;13.57;;;13.30;90.50;;;;;;5092502;28;20199;-90
2023/08/27 05:28:43;;;;;;;15.10;14.07;;;13.40;90.60;;;;;;5092600;28;20622;-90
2023/08/27 05:31:09;;;;;;;14.40;13.40;;;13.50;90.60;;;;;;5092649;28;20591;-90
2023/08/27 05:33:34;;;;;;;14.53;13.17;;;13.50;90.70;;;;;;5092603;28;20626;-90
2023/08/27 05:36:00;;;;;;;14.10;13.10;;;13.50;90.70;;;;;;5092507;28;20569;-90
2023/08/27 05:38:25;;;;;;;15.68;13.27;;;13.60;90.70;;;;;;5092580;28;20650;-90
2023/08/27 05:40:51;;;;;;;14.77;13.60;;;13.70;90.70;;;;;;5092485;28;20209;-90
2023/08/27 05:43:17;;;;;;;13.48;12.48;;;13.70;90.70;;;;;;5092389;28;20204;-90
2023/08/27 05:45:42;;;;;;;14.07;12.85;;;13.80;90.70;;;;;;5092208;28;20230;-90
2023/08/27 05:48:08;;;;;;;14.88;13.10;;;13.80;90.80;;;;;;5092519;28;20166;-90
2023/08/27 05:50:34;;;;;;;13.85;12.75;;;13.90;90.80;;;;;;5092271;28;20247;-90
2023/08/27 05:53:01;;;;;;;14.52;13.52;;;13.90;90.80;;;;;;5092204;28;20178;-90
2023/08/27 05:55:26;;;;;;;16.13;15.00;;;13.90;90.80;;;;;;5091956;28;20704;-90
2023/08/27 05:57:52;;;;;;;17.27;16.17;;;13.90;91.00;;;;;;5092211;28;20269;-90
2023/08/27 06:00:19;;;;;;;19.00;17.70;;;13.80;91.00;;;;;;5092160;28;20185;-90
2023/08/27 06:02:44;;;;;;;20.15;18.45;;;13.80;91.20;;;;;;5092113;28;20182;-90
2023/08/27 06:05:11;;;;;;;20.27;18.63;;;13.80;91.30;;;;;;5092003;28;20194;-90
2023/08/27 06:07:37;;;;;;;20.42;18.92;;;13.70;91.50;;;;;;5092130;28;20219;-89
2023/08/27 06:10:03;;;;;;;20.92;19.52;;;13.70;91.50;;;;;;5093802;28;20179;-89
2023/08/27 06:12:28;;;;;;;20.25;18.77;;;13.80;91.60;;;;;;5099413;28;20210;-90
2023/08/27 06:14:54;;;;;;;21.10;19.50;;;13.80;91.90;;;;;;5099196;28;20198;-90
2023/08/27 06:17:19;;;;;;;21.50;20.00;;;13.90;92.00;;;;;;5099773;28;20174;-89
2023/08/27 06:19:45;;;;;;;21.47;19.53;;;13.90;92.10;;;;;;5106137;28;20181;-90
2023/08/27 06:22:11;;;;;;;20.80;19.30;;;14.00;92.30;;;;;;5106932;28;20177;-90
2023/08/27 06:24:36;;;;;;;30.08;27.60;;;14.20;92.40;;;;;;5106872;28;20716;-90
2023/08/27 06:27:02;;;;;;;30.50;28.40;;;14.30;92.50;;;;;;5106965;28;20717;-90
2023/08/27 06:29:27;;;;;;;31.95;29.95;;;14.60;92.70;;;;;;5104757;28;20273;-90
2023/08/27 06:31:53;;;;;;;19.42;17.88;;;14.80;92.80;;;;;;5106711;28;20179;-90
2023/08/27 06:34:18;;;;;;;20.63;18.50;;;14.80;92.80;;;;;;5106436;28;20602;-90
2023/08/27 06:36:44;;;;;;;28.35;26.50;;;14.90;92.80;;;;;;5106780;28;20195;-90
2023/08/27 06:39:09;;;;;;;27.77;25.98;;;15.00;92.80;;;;;;5107364;28;20249;-90
2023/08/27 06:41:35;;;;;;;29.02;26.83;;;15.00;92.90;;;;;;5105700;28;20185;-90
2023/08/27 06:44:12;;;;;;;18.00;16.70;;;15.10;92.90;;;;;;5105775;28;20200;-90
2023/08/27 06:46:38;;;;;;;17.88;16.58;;;15.20;93.00;;;;;;5104184;28;20194;-90
2023/08/27 06:49:04;;;;;;;20.60;19.20;;;15.20;92.90;;;;;;5105664;28;20189;-90
2023/08/27 06:51:29;;;;;;;19.02;17.63;;;15.20;92.90;;;;;;5104186;28;20174;-91
2023/08/27 06:53:55;;;;;;;17.50;16.13;;;15.20;92.70;;;;;;5104888;28;20178;-90
2023/08/27 06:56:21;;;;;;;16.42;15.18;;;15.30;92.70;;;;;;5103563;28;20206;-90
2023/08/27 06:58:48;;;;;;;15.45;14.18;;;15.40;92.80;;;;;;5104188;28;20190;-91
2023/08/27 07:01:14;;;;;;;15.48;14.23;;;15.50;92.60;;;;;;5104777;28;20572;-90
2023/08/27 07:03:40;;;;;;;15.60;14.30;;;15.70;92.60;;;;;;5104644;28;20249;-90
2023/08/27 07:06:05;;;;;;;16.35;15.15;;;15.70;92.30;;;;;;5103050;28;20226;-90
2023/08/27 07:08:31;;;;;;;17.38;15.82;;;15.70;92.20;;;;;;5104903;28;20512;-91
2023/08/27 07:10:57;;;;;;;16.08;14.98;;;15.90;92.00;;;;;;5103243;28;20174;-90
2023/08/27 07:13:22;;;;;;;15.32;14.02;;;16.00;91.90;;;;;;5102723;28;20634;-91
2023/08/27 07:15:48;;;;;;;14.05;13.10;;;16.10;91.70;;;;;;5102353;28;20194;-91
2023/08/27 07:18:15;;;;;;;14.77;13.45;;;16.10;91.50;;;;;;5103654;28;20174;-90
2023/08/27 07:20:41;;;;;;;15.10;14.00;;;16.00;91.10;;;;;;5103291;28;20174;-91
2023/08/27 07:23:06;;;;;;;14.93;13.82;;;16.00;91.10;;;;;;5100216;28;20217;-90
2023/08/27 07:25:34;;;;;;;15.10;13.88;;;16.10;91.10;;;;;;5099704;28;20224;-91
2023/08/27 07:27:59;;;;;;;14.65;13.38;;;16.20;90.90;;;;;;5100433;28;20171;-90
2023/08/27 07:30:25;;;;;;;14.52;13.57;;;16.30;90.80;;;;;;5100469;28;20204;-91
2023/08/27 07:32:51;;;;;;;15.20;13.70;;;16.30;90.40;;;;;;5099273;28;20167;-91
2023/08/27 07:35:17;;;;;;;14.00;13.10;;;16.40;90.40;;;;;;5100731;28;20202;-91
2023/08/27 07:37:43;;;;;;;14.50;13.40;;;16.40;90.00;;;;;;5099950;28;20170;-91
2023/08/27 07:40:09;;;;;;;14.30;13.10;;;16.40;89.80;;;;;;5099795;28;20167;-91
2023/08/27 07:42:35;;;;;;;15.77;14.15;;;16.50;89.80;;;;;;5098335;28;20175;-91
2023/08/27 07:45:01;;;;;;;14.60;13.40;;;16.60;89.50;;;;;;5098311;28;20201;-91
2023/08/27 07:47:26;;;;;;;14.68;13.40;;;16.70;89.40;;;;;;5098644;28;20209;-91
2023/08/27 07:49:52;;;;;;;14.38;13.10;;;16.80;89.30;;;;;;5099847;28;20179;-91
2023/08/27 07:52:17;;;;;;;16.00;14.85;;;16.90;88.70;;;;;;5098855;28;20182;-91
2023/08/27 07:54:43;;;;;;;15.45;14.18;;;16.80;87.80;;;;;;5098579;28;20222;-91
2023/08/27 07:57:09;;;;;;;15.90;14.70;;;17.00;87.80;;;;;;5098613;28;20194;-91
2023/08/27 07:59:35;;;;;;;16.23;14.77;;;17.10;87.40;;;;;;5096441;28;20202;-91
2023/08/27 08:02:00;;;;;;;15.43;14.32;;;17.00;85.00;;;;;;5098562;28;20182;-91
2023/08/27 08:04:26;;;;;;;24.48;22.73;;;17.10;84.80;;;;;;5096885;28;20170;-91
2023/08/27 08:06:52;;;;;;;24.98;23.20;;;17.20;85.00;;;;;;5099010;28;20227;-91
2023/08/27 08:09:17;;;;;;;26.73;24.73;;;17.30;84.60;;;;;;5098970;28;20564;-91
2023/08/27 08:11:43;;;;;;;17.15;15.60;;;17.40;84.60;;;;;;5097253;28;20232;-91
2023/08/27 08:14:08;;;;;;;15.80;14.43;;;17.50;84.40;;;;;;5096915;28;20244;-91
2023/08/27 08:16:34;;;;;;;25.50;23.63;;;17.60;84.10;;;;;;5096913;28;20616;-91
2023/08/27 08:18:59;;;;;;;26.58;24.67;;;17.60;83.00;;;;;;5096889;28;20182;-91
2023/08/27 08:21:25;;;;;;;21.83;20.35;;;17.70;83.60;;;;;;5096656;28;20171;-90
2023/08/27 08:23:51;;;;;;;17.20;15.85;;;17.80;83.50;;;;;;5095955;28;20542;-91
2023/08/27 08:26:16;;;;;;;16.17;14.65;;;17.80;82.70;;;;;;5096030;28;20237;-91
2023/08/27 08:28:42;;;;;;;15.27;14.27;;;17.90;82.40;;;;;;5096328;28;20171;-91
2023/08/27 08:31:07;;;;;;;15.75;14.45;;;17.90;82.70;;;;;;5096216;28;20548;-91
2023/08/27 08:33:33;;;;;;;15.32;14.23;;;18.00;82.20;;;;;;5096249;28;20164;-91
2023/08/27 08:35:58;;;;;;;15.70;14.50;;;18.00;81.50;;;;;;5097989;28;20609;-91
2023/08/27 08:38:24;;;;;;;16.23;14.93;;;18.20;81.70;;;;;;5096496;28;20207;-91
2023/08/27 08:40:59;;;;;;;14.73;13.63;;;18.10;81.10;;;;;;5096442;28;20201;-91
2023/08/27 08:43:30;;;;;;;16.35;15.10;;;18.20;81.40;;;;;;5096049;28;20200;-91
2023/08/27 08:45:56;;;;;;;16.15;14.88;;;18.20;79.70;;;;;;5096897;28;20690;-91
2023/08/27 08:48:22;;;;;;;15.32;14.05;;;18.20;80.30;;;;;;5096684;28;20171;-91
2023/08/27 08:50:52;;;;;;;15.82;14.82;;;18.30;81.10;;;;;;5096228;28;20174;-91
2023/08/27 08:53:19;;;;;;;14.98;13.93;;;18.40;80.70;;;;;;5096033;28;20166;-91
2023/08/27 08:55:51;;;;;;;15.60;14.50;;;18.50;80.80;;;;;;5095457;28;20214;-91
2023/08/27 08:58:19;;;;;;;16.13;14.98;;;18.60;80.30;;;;;;5096057;28;20215;-91
2023/08/27 09:00:45;;;;;;;15.48;14.38;;;18.70;80.50;;;;;;5097396;28;20730;-91
2023/08/27 09:03:11;;;;;;;16.55;15.30;;;19.00;80.70;;;;;;5096491;28;20174;-91
2023/08/27 09:05:38;;;;;;;16.58;15.25;;;19.00;79.10;;;;;;5097133;28;20694;-91
2023/08/27 09:08:10;;;;;;;15.95;14.48;;;19.20;79.00;;;;;;5097040;28;20249;-91
2023/08/27 09:10:36;;;;;;;17.25;16.15;;;19.30;78.60;;;;;;5096226;28;20171;-91
2023/08/27 09:13:05;;;;;;;16.05;14.48;;;19.50;77.40;;;;;;5096670;28;20213;-90
2023/08/27 09:15:30;;;;;;;17.13;15.93;;;19.50;77.40;;;;;;5095708;28;20278;-90
2023/08/27 09:17:56;;;;;;;17.88;16.50;;;19.50;76.30;;;;;;5096559;28;20198;-91
2023/08/27 09:20:22;;;;;;;17.75;16.52;;;19.60;75.90;;;;;;5095979;28;20204;-91
2023/08/27 09:22:48;;;;;;;18.52;17.15;;;19.60;76.40;;;;;;5096320;28;20519;-91
2023/08/27 09:25:14;;;;;;;18.42;17.02;;;19.80;76.20;;;;;;5098744;28;20230;-91
2023/08/27 09:27:40;;;;;;;18.70;17.40;;;19.90;77.10;;;;;;5097781;28;20177;-91
2023/08/27 09:30:07;;;;;;;18.40;16.88;;;19.90;75.70;;;;;;5097134;28;20174;-91
2023/08/27 09:32:33;;;;;;;18.10;16.80;;;19.90;76.20;;;;;;5098189;28;20178;-91
2023/08/27 09:35:05;;;;;;;18.33;16.95;;;19.90;77.20;;;;;;5098766;28;20186;-90
2023/08/27 09:37:39;;;;;;;18.67;17.23;;;19.90;76.60;;;;;;5096428;28;20551;-91
2023/08/27 09:40:09;;;;;;;19.15;17.65;;;20.10;77.70;;;;;;5097916;28;20181;-91
2023/08/27 09:42:36;;;;;;;20.58;18.63;;;20.10;75.80;;;;;;5096081;28;20182;-91
2023/08/27 09:45:02;;;;;;;19.48;17.90;;;20.00;75.10;;;;;;5095103;28;20202;-91
2023/08/27 09:47:32;;;;;;;18.95;17.50;;;20.10;75.70;;;;;;5097269;28;20194;-91
2023/08/27 09:49:59;;;;;;;17.33;15.77;;;20.00;75.40;;;;;;5097689;28;20169;-91
2023/08/27 09:52:26;;;;;;;16.90;15.40;;;20.00;77.40;;;;;;5097768;28;20167;-90
2023/08/27 09:54:52;;;;;;;18.00;16.70;;;20.20;77.10;;;;;;5097076;28;20204;-90
2023/08/27 09:57:19;;;;;;;17.70;16.17;;;20.30;76.30;;;;;;5097291;28;20210;-90
2023/08/27 09:59:45;;;;;;;18.27;16.92;;;20.40;76.50;;;;;;5096908;28;20684;-91
2023/08/27 10:02:13;;;;;;;19.45;18.13;;;20.50;76.70;;;;;;5096803;28;20166;-91
2023/08/27 10:04:51;;;;;;;19.38;17.98;;;20.30;74.80;;;;;;5096246;28;20194;-91
2023/08/27 10:07:17;;;;;;;18.73;17.25;;;20.30;74.90;;;;;;5097639;28;20609;-91
2023/08/27 10:09:47;;;;;;;19.20;17.80;;;20.40;74.80;;;;;;5096391;28;20171;-91
2023/08/27 10:12:13;;;;;;;18.13;16.90;;;20.50;75.20;;;;;;5095560;28;20518;-91
2023/08/27 10:14:42;;;;;;;19.05;17.52;;;20.50;75.90;;;;;;5096539;28;20178;-91
2023/08/27 10:17:09;;;;;;;19.05;17.50;;;20.50;76.40;;;;;;5095674;28;20178;-91
2023/08/27 10:19:36;;;;;;;18.55;17.05;;;20.50;75.60;;;;;;5097008;28;20170;-91
2023/08/27 10:22:03;;;;;;;19.42;18.15;;;20.60;75.30;;;;;;5096371;28;20179;-91
2023/08/27 10:24:29;;;;;;;20.00;18.65;;;20.40;74.40;;;;;;5095348;28;20670;-91
2023/08/27 10:26:59;;;;;;;29.83;27.70;;;20.60;74.00;;;;;;5097325;28;20246;-91
2023/08/27 10:29:26;;;;;;;31.25;29.13;;;20.80;75.10;;;;;;5097396;28;20171;-91
2023/08/27 10:31:55;;;;;;;32.63;30.33;;;20.90;75.30;;;;;;5095043;28;20175;-91
2023/08/27 10:34:23;;;;;;;19.90;18.38;;;20.90;74.40;;;;;;5095385;28;20175;-90
2023/08/27 10:36:51;;;;;;;19.33;17.90;;;20.70;73.80;;;;;;5096752;28;20175;-91
2023/08/27 10:39:20;;;;;;;19.60;17.85;;;20.60;75.30;;;;;;5095929;28;20251;-91
2023/08/27 10:41:46;;;;;;;18.65;17.27;;;20.60;75.10;;;;;;5095291;28;20175;-91
2023/08/27 10:44:21;;;;;;;18.25;16.95;;;20.70;75.10;;;;;;5095387;28;20225;-91
2023/08/27 10:47:11;;;;;;;19.48;17.98;;;20.80;75.10;;;;;;5097221;28;20188;-91
2023/08/27 10:49:38;;;;;;;19.30;17.58;;;20.70;74.40;;;;;;5089233;28;20674;-91
2023/08/27 10:52:22;;;;;;;19.73;18.13;;;20.50;74.90;;;;;;5094828;28;20173;-90
2023/08/27 10:54:57;;;;;;;19.40;18.00;;;20.40;74.50;;;;;;5094611;28;20231;-90
2023/08/27 10:57:23;;;;;;;19.25;17.42;;;20.30;74.40;;;;;;5096538;28;20556;-90
2023/08/27 10:59:51;;;;;;;17.30;16.20;;;20.10;75.90;;;;;;5096082;28;20177;-90
2023/08/27 11:02:17;;;;;;;18.27;16.83;;;20.20;76.70;;;;;;5096093;28;20179;-91
2023/08/27 11:04:48;;;;;;;18.38;16.98;;;19.90;75.90;;;;;;5095461;28;20198;-90
2023/08/27 11:07:15;;;;;;;17.67;16.52;;;19.90;75.80;;;;;;5095632;28;20183;-90
2023/08/27 11:09:49;;;;;;;17.70;16.13;;;19.80;76.10;;;;;;5095675;28;20170;-90
2023/08/27 11:12:23;;;;;;;17.25;16.08;;;19.80;76.00;;;;;;5097736;28;20171;-90
2023/08/27 11:14:48;;;;;;;17.33;16.02;;;19.80;76.10;;;;;;5097329;28;20218;-90
2023/08/27 11:17:25;;;;;;;17.52;16.13;;;19.80;76.80;;;;;;5099554;28;20193;-90
2023/08/27 11:19:51;;;;;;;17.95;16.40;;;20.00;76.50;;;;;;5100342;28;20638;-90
2023/08/27 11:22:19;;;;;;;18.45;17.05;;;20.00;76.40;;;;;;5100877;28;20258;-90
2023/08/27 11:24:53;;;;;;;17.35;16.15;;;20.10;75.80;;;;;;5099648;28;20301;-90
2023/08/27 11:27:23;;;;;;;16.40;15.35;;;19.90;76.20;;;;;;5099043;28;20196;-91
2023/08/27 11:29:51;;;;;;;18.23;16.92;;;19.80;76.60;;;;;;5099333;28;20147;-91
2023/08/27 11:32:19;;;;;;;17.05;15.30;;;19.70;76.30;;;;;;5099294;28;20260;-91
2023/08/27 11:34:51;;;;;;;14.80;13.70;;;19.40;78.00;;;;;;5099560;28;20183;-91
2023/08/27 11:37:17;;;;;;;12.52;11.35;;;18.20;78.40;;;;;;5098952;28;20163;-91
2023/08/27 11:39:44;;;;;;;11.95;11.07;;;17.00;83.10;;;;;;5098228;28;20669;-91
2023/08/27 11:42:14;;;;;;;11.45;10.45;;;16.40;85.10;;;;;;5096293;28;20270;-90
2023/08/27 11:44:53;;;;;;;12.35;9.10;;;16.20;86.20;;;;;;5099202;28;20190;-90
2023/08/27 11:47:21;;;;;;;14.70;8.90;;;15.50;88.60;;;;;;5098382;28;20194;-90
2023/08/27 11:49:48;;;;;;;8.38;7.57;;;15.30;89.40;;;;;;5098908;28;20202;-90
2023/08/27 11:52:16;;;;;;;7.13;6.53;;;15.20;90.00;;;;;;5101362;28;20162;-90
2023/08/27 11:54:43;;;;;;;8.45;7.63;;;15.20;89.60;;;;;;5097964;28;20221;-90
2023/08/27 11:57:09;;;;;;;7.93;7.30;;;15.40;90.00;;;;;;5102051;28;20557;-89
2023/08/27 11:59:37;;;;;;;7.53;6.93;;;15.30;89.10;;;;;;5102225;28;20290;-89
2023/08/27 12:02:04;;;;;;;7.80;7.30;;;15.40;89.40;;;;;;5101192;28;20178;-90
2023/08/27 12:04:32;;;;;;;7.85;7.22;;;15.50;89.20;;;;;;5100401;28;20179;-89
2023/08/27 12:07:02;;;;;;;8.77;8.15;;;15.70;89.40;;;;;;5103377;28;20195;-90
2023/08/27 12:09:30;;;;;;;9.48;8.68;;;16.10;89.60;;;;;;5102906;28;20167;-90
2023/08/27 12:12:04;;;;;;;9.35;8.75;;;16.30;89.30;;;;;;5103907;28;20254;-90
2023/08/27 12:14:30;;;;;;;12.70;11.75;;;16.30;88.80;;;;;;5104962;28;20162;-89
2023/08/27 12:17:03;;;;;;;14.00;13.10;;;16.50;88.60;;;;;;5103765;28;20170;-90
2023/08/27 12:19:29;;;;;;;10.70;9.68;;;16.70;88.40;;;;;;5102767;28;20175;-90
2023/08/27 12:21:58;;;;;;;10.50;9.73;;;16.90;88.20;;;;;;5105087;28;20201;-90
2023/08/27 12:24:32;;;;;;;11.18;10.20;;;17.00;87.90;;;;;;5103482;28;20258;-90
2023/08/27 12:27:09;;;;;;;10.93;10.13;;;16.90;87.40;;;;;;5102970;28;20204;-90